createdAt,value
2019-01-09T00:00:46.890Z,968.87
2019-01-09T00:01:46.803Z,968.83
2019-01-09T00:02:46.723Z,968.77
2019-01-09T00:03:46.640Z,968.76
2019-01-09T00:04:46.561Z,968.69
2019-01-09T00:05:46.473Z,968.78
2019-01-09T00:06:46.391Z,968.78
2019-01-09T00:07:46.308Z,968.78
2019-01-09T00:08:46.238Z,968.77
2019-01-09T00:09:46.144Z,968.76
2019-01-09T00:10:46.060Z,968.87
2019-01-09T00:11:45.975Z,968.88
2019-01-09T00:12:45.893Z,968.82
2019-01-09T00:13:45.807Z,968.83
2019-01-09T00:14:45.724Z,968.74
2019-01-09T00:15:45.642Z,968.82
2019-01-09T00:16:45.574Z,968.76
2019-01-09T00:17:45.473Z,968.72
2019-01-09T00:18:45.395Z,968.66
2019-01-09T00:19:45.311Z,968.77
2019-01-09T00:20:45.229Z,968.74
2019-01-09T00:21:45.142Z,968.76
2019-01-09T00:22:45.063Z,968.81
2019-01-09T00:23:44.981Z,968.80
2019-01-09T00:24:44.900Z,968.86
2019-01-09T00:25:44.811Z,968.89
2019-01-09T00:26:44.728Z,968.80
2019-01-09T00:27:44.648Z,968.76
2019-01-09T00:28:44.562Z,968.79
2019-01-09T00:29:44.482Z,968.82
2019-01-09T00:30:44.395Z,968.80
2019-01-09T00:31:44.313Z,968.76
2019-01-09T00:32:44.235Z,968.75
2019-01-09T00:33:44.149Z,968.77
2019-01-09T00:34:44.068Z,968.76
2019-01-09T00:35:44.020Z,968.78
2019-01-09T00:36:43.904Z,968.79
2019-01-09T00:37:43.817Z,968.80
2019-01-09T00:38:43.733Z,968.86
2019-01-09T00:39:43.649Z,968.82
2019-01-09T00:40:43.574Z,968.73
2019-01-09T00:41:43.483Z,968.73
2019-01-09T00:42:43.411Z,968.74
2019-01-09T00:43:43.325Z,968.69
2019-01-09T00:44:43.231Z,968.68
2019-01-09T00:45:43.151Z,968.72
2019-01-09T00:46:43.071Z,968.61
2019-01-09T00:47:42.986Z,968.62
2019-01-09T00:48:42.903Z,968.72
2019-01-09T00:49:42.819Z,968.73
2019-01-09T00:50:42.739Z,968.63
2019-01-09T00:51:42.652Z,968.69
2019-01-09T00:52:42.576Z,968.66
2019-01-09T00:53:42.487Z,968.73
2019-01-09T00:54:42.403Z,968.73
2019-01-09T00:55:42.318Z,968.78
2019-01-09T00:56:42.241Z,968.72
2019-01-09T00:57:42.153Z,968.72
2019-01-09T00:58:42.068Z,968.72
2019-01-09T00:59:41.987Z,968.74
2019-01-09T01:00:41.905Z,968.69
2019-01-09T01:01:41.818Z,968.74
2019-01-09T01:02:41.740Z,968.78
2019-01-09T01:03:41.656Z,968.83
2019-01-09T01:04:41.567Z,968.84
2019-01-09T01:05:45.989Z,968.90
2019-01-09T01:06:41.405Z,968.86
2019-01-09T01:07:41.324Z,968.86
2019-01-09T01:08:41.242Z,968.87
2019-01-09T01:09:41.157Z,968.88
2019-01-09T01:10:41.078Z,968.85
2019-01-09T01:11:40.993Z,968.80
2019-01-09T01:12:40.906Z,968.91
2019-01-09T01:13:40.824Z,968.87
2019-01-09T01:14:40.748Z,968.99
2019-01-09T01:15:40.657Z,968.93
2019-01-09T01:16:40.576Z,969.03
2019-01-09T01:17:40.491Z,968.90
2019-01-09T01:18:40.410Z,968.90
2019-01-09T01:19:40.324Z,968.89
2019-01-09T01:20:40.250Z,968.83
2019-01-09T01:21:40.165Z,968.94
2019-01-09T01:22:40.078Z,968.94
2019-01-09T01:23:39.994Z,968.89
2019-01-09T01:24:39.905Z,969.00
2019-01-09T01:25:39.828Z,968.97
2019-01-09T01:26:39.741Z,969.01
2019-01-09T01:27:39.660Z,969.03
2019-01-09T01:28:39.579Z,969.07
2019-01-09T01:29:39.494Z,969.09
2019-01-09T01:30:39.412Z,969.13
2019-01-09T01:31:39.340Z,969.00
2019-01-09T01:32:39.248Z,969.13
2019-01-09T01:33:39.160Z,969.09
2019-01-09T01:34:39.078Z,969.10
2019-01-09T01:35:39.004Z,969.11
2019-01-09T01:36:38.911Z,969.11
2019-01-09T01:37:38.827Z,969.07
2019-01-09T01:38:38.746Z,969.10
2019-01-09T01:39:38.666Z,969.06
2019-01-09T01:40:38.578Z,969.15
2019-01-09T01:41:38.502Z,969.07
2019-01-09T01:42:38.419Z,969.12
2019-01-09T01:43:38.333Z,969.04
2019-01-09T01:44:38.249Z,969.07
2019-01-09T01:45:38.164Z,969.08
2019-01-09T01:46:38.087Z,969.06
2019-01-09T01:47:38.001Z,969.05
2019-01-09T01:48:37.912Z,969.08
2019-01-09T01:49:37.834Z,969.09
2019-01-09T01:50:37.751Z,969.11
2019-01-09T01:51:37.666Z,968.95
2019-01-09T01:52:37.583Z,969.03
2019-01-09T01:53:37.499Z,969.03
2019-01-09T01:54:37.420Z,969.01
2019-01-09T01:55:37.333Z,969.08
2019-01-09T01:56:37.251Z,969.08
2019-01-09T01:57:37.165Z,968.96
2019-01-09T01:58:37.084Z,969.06
2019-01-09T01:59:37.003Z,969.02
2019-01-09T02:00:36.918Z,969.06
2019-01-09T02:01:36.832Z,969.02
2019-01-09T02:02:36.746Z,968.99
2019-01-09T02:03:36.674Z,969.01
2019-01-09T02:04:36.584Z,969.00
2019-01-09T02:05:36.506Z,968.95
2019-01-09T02:06:36.422Z,968.96
2019-01-09T02:07:36.339Z,968.93
2019-01-09T02:08:36.254Z,968.95
2019-01-09T02:09:36.169Z,968.94
2019-01-09T02:10:36.088Z,968.96
2019-01-09T02:11:36.007Z,968.90
2019-01-09T02:12:35.920Z,969.01
2019-01-09T02:13:35.837Z,968.91
2019-01-09T02:14:35.750Z,968.93
2019-01-09T02:15:35.670Z,969.00
2019-01-09T02:16:35.591Z,969.02
2019-01-09T02:17:35.503Z,968.95
2019-01-09T02:18:35.433Z,968.97
2019-01-09T02:19:35.337Z,968.98
2019-01-09T02:20:35.256Z,968.96
2019-01-09T02:21:35.173Z,968.86
2019-01-09T02:22:35.089Z,968.95
2019-01-09T02:23:35.011Z,968.96
2019-01-09T02:24:34.922Z,969.03
2019-01-09T02:25:34.840Z,969.07
2019-01-09T02:26:34.771Z,968.96
2019-01-09T02:27:34.675Z,969.05
2019-01-09T02:28:34.590Z,969.00
2019-01-09T02:29:34.504Z,968.99
2019-01-09T02:30:34.427Z,968.96
2019-01-09T02:31:34.347Z,968.99
2019-01-09T02:32:34.265Z,968.91
2019-01-09T02:33:34.178Z,968.96
2019-01-09T02:34:34.094Z,968.96
2019-01-09T02:35:34.014Z,968.99
2019-01-09T02:36:33.925Z,969.00
2019-01-09T02:37:33.844Z,969.00
2019-01-09T02:38:33.758Z,968.96
2019-01-09T02:39:33.677Z,968.96
2019-01-09T02:40:33.594Z,968.99
2019-01-09T02:41:33.510Z,968.94
2019-01-09T02:42:33.428Z,968.93
2019-01-09T02:43:33.350Z,968.91
2019-01-09T02:44:33.265Z,968.94
2019-01-09T02:45:33.178Z,968.97
2019-01-09T02:46:33.093Z,968.89
2019-01-09T02:47:33.103Z,968.92
2019-01-09T02:48:32.931Z,968.90
2019-01-09T02:49:32.843Z,968.93
2019-01-09T02:50:32.776Z,968.84
2019-01-09T02:51:32.680Z,968.90
2019-01-09T02:52:32.596Z,968.96
2019-01-09T02:53:32.511Z,968.94
2019-01-09T02:54:32.427Z,968.98
2019-01-09T02:55:32.350Z,968.98
2019-01-09T02:56:32.260Z,968.94
2019-01-09T02:57:32.181Z,968.94
2019-01-09T02:58:32.095Z,968.96
2019-01-09T02:59:32.014Z,969.01
2019-01-09T03:00:31.930Z,968.95
2019-01-09T03:01:31.844Z,968.95
2019-01-09T03:02:31.762Z,968.96
2019-01-09T03:03:31.685Z,968.95
2019-01-09T03:04:31.604Z,969.03
2019-01-09T03:05:31.517Z,968.99
2019-01-09T03:06:31.431Z,969.00
2019-01-09T03:07:31.352Z,968.88
2019-01-09T03:08:31.268Z,968.97
2019-01-09T03:09:31.182Z,968.93
2019-01-09T03:10:31.096Z,968.95
2019-01-09T03:11:31.013Z,968.88
2019-01-09T03:12:30.932Z,968.90
2019-01-09T03:13:30.847Z,968.85
2019-01-09T03:14:30.765Z,968.85
2019-01-09T03:15:30.685Z,968.92
2019-01-09T03:16:30.601Z,968.89
2019-01-09T03:17:30.515Z,968.87
2019-01-09T03:18:30.426Z,968.78
2019-01-09T03:19:30.353Z,968.80
2019-01-09T03:20:30.267Z,968.83
2019-01-09T03:21:30.186Z,968.80
2019-01-09T03:22:30.104Z,968.72
2019-01-09T03:23:30.017Z,968.74
2019-01-09T03:24:29.934Z,968.75
2019-01-09T03:25:29.874Z,968.74
2019-01-09T03:26:29.763Z,968.69
2019-01-09T03:27:29.682Z,968.73
2019-01-09T03:28:29.605Z,968.69
2019-01-09T03:29:29.511Z,968.70
2019-01-09T03:30:29.435Z,968.66
2019-01-09T03:31:29.439Z,968.58
2019-01-09T03:32:29.272Z,968.62
2019-01-09T03:33:29.179Z,968.59
2019-01-09T03:34:29.103Z,968.63
2019-01-09T03:35:29.017Z,968.57
2019-01-09T03:36:32.758Z,968.52
2019-01-09T03:37:28.849Z,968.57
2019-01-09T03:38:28.767Z,968.43
2019-01-09T03:39:28.681Z,968.51
2019-01-09T03:40:28.602Z,968.50
2019-01-09T03:41:28.517Z,968.47
2019-01-09T03:42:28.435Z,968.49
2019-01-09T03:43:28.347Z,968.48
2019-01-09T03:44:28.270Z,968.47
2019-01-09T03:45:28.183Z,968.48
2019-01-09T03:46:28.107Z,968.52
2019-01-09T03:47:28.021Z,968.42
2019-01-09T03:48:27.937Z,968.51
2019-01-09T03:49:27.853Z,968.46
2019-01-09T03:50:27.768Z,968.47
2019-01-09T03:51:27.686Z,968.42
2019-01-09T03:52:27.601Z,968.37
2019-01-09T03:53:27.525Z,968.43
2019-01-09T03:54:27.434Z,968.40
2019-01-09T03:55:27.417Z,968.39
2019-01-09T03:56:27.270Z,968.31
2019-01-09T03:57:27.184Z,968.37
2019-01-09T03:58:27.108Z,968.34
2019-01-09T03:59:27.016Z,968.36
2019-01-09T04:00:26.938Z,968.34
2019-01-09T04:01:26.857Z,968.33
2019-01-09T04:02:26.769Z,968.29
2019-01-09T04:03:26.685Z,968.31
2019-01-09T04:04:26.600Z,968.32
2019-01-09T04:05:26.516Z,968.34
2019-01-09T04:06:26.434Z,968.27
2019-01-09T04:07:26.353Z,968.25
2019-01-09T04:08:26.267Z,968.24
2019-01-09T04:09:26.185Z,968.15
2019-01-09T04:10:26.108Z,968.19
2019-01-09T04:11:26.020Z,968.21
2019-01-09T04:12:25.944Z,968.19
2019-01-09T04:13:25.849Z,968.22
2019-01-09T04:14:25.767Z,968.27
2019-01-09T04:15:25.684Z,968.19
2019-01-09T04:16:25.605Z,968.20
2019-01-09T04:17:25.515Z,968.19
2019-01-09T04:18:25.441Z,968.16
2019-01-09T04:19:25.349Z,968.17
2019-01-09T04:20:25.272Z,968.18
2019-01-09T04:21:25.186Z,968.22
2019-01-09T04:22:25.100Z,968.17
2019-01-09T04:23:25.018Z,968.12
2019-01-09T04:24:24.935Z,968.16
2019-01-09T04:25:24.858Z,968.17
2019-01-09T04:26:24.772Z,968.16
2019-01-09T04:27:24.687Z,968.06
2019-01-09T04:28:24.600Z,968.09
2019-01-09T04:29:24.522Z,968.03
2019-01-09T04:30:24.435Z,968.06
2019-01-09T04:31:24.396Z,968.01
2019-01-09T04:32:24.268Z,967.98
2019-01-09T04:33:24.182Z,968.03
2019-01-09T04:34:24.104Z,967.93
2019-01-09T04:35:24.021Z,967.94
2019-01-09T04:36:23.935Z,967.93
2019-01-09T04:37:23.851Z,967.89
2019-01-09T04:38:23.775Z,967.90
2019-01-09T04:39:23.686Z,967.99
2019-01-09T04:40:23.606Z,967.92
2019-01-09T04:41:23.519Z,967.94
2019-01-09T04:42:23.437Z,967.93
2019-01-09T04:43:23.350Z,967.92
2019-01-09T04:44:23.273Z,967.91
2019-01-09T04:45:23.192Z,967.97
2019-01-09T04:46:23.106Z,967.88
2019-01-09T04:47:23.020Z,967.93
2019-01-09T04:48:22.936Z,967.86
2019-01-09T04:49:22.854Z,967.85
2019-01-09T04:50:22.768Z,967.81
2019-01-09T04:51:22.686Z,967.75
2019-01-09T04:52:22.603Z,967.82
2019-01-09T04:53:22.519Z,967.73
2019-01-09T04:54:22.436Z,967.87
2019-01-09T04:55:22.353Z,967.74
2019-01-09T04:56:22.268Z,967.74
2019-01-09T04:57:22.185Z,967.72
2019-01-09T04:58:22.100Z,967.70
2019-01-09T04:59:22.022Z,967.79
2019-01-09T05:00:21.933Z,967.71
2019-01-09T05:01:21.852Z,967.71
2019-01-09T05:02:21.767Z,967.75
2019-01-09T05:03:21.687Z,967.82
2019-01-09T05:04:21.600Z,967.79
2019-01-09T05:05:21.519Z,967.80
2019-01-09T05:06:21.434Z,967.75
2019-01-09T05:07:21.353Z,967.88
2019-01-09T05:08:21.272Z,967.76
2019-01-09T05:09:21.186Z,967.80
2019-01-09T05:10:21.098Z,967.81
2019-01-09T05:11:21.017Z,967.85
2019-01-09T05:12:20.953Z,967.88
2019-01-09T05:13:20.913Z,967.86
2019-01-09T05:14:20.767Z,967.85
2019-01-09T05:15:20.686Z,967.88
2019-01-09T05:16:20.598Z,967.90
2019-01-09T05:17:20.522Z,967.82
2019-01-09T05:18:20.437Z,967.82
2019-01-09T05:19:20.351Z,967.86
2019-01-09T05:20:20.271Z,967.85
2019-01-09T05:21:20.188Z,967.91
2019-01-09T05:22:20.110Z,967.85
2019-01-09T05:23:20.018Z,967.79
2019-01-09T05:24:19.936Z,967.91
2019-01-09T05:25:19.929Z,967.89
2019-01-09T05:26:19.768Z,967.90
2019-01-09T05:27:19.688Z,967.94
2019-01-09T05:28:19.607Z,967.90
2019-01-09T05:29:19.520Z,967.89
2019-01-09T05:30:19.435Z,967.92
2019-01-09T05:31:19.347Z,967.84
2019-01-09T05:32:19.279Z,967.99
2019-01-09T05:33:19.186Z,967.93
2019-01-09T05:34:19.102Z,967.95
2019-01-09T05:35:19.017Z,967.96
2019-01-09T05:36:18.931Z,968.02
2019-01-09T05:37:18.848Z,968.06
2019-01-09T05:38:18.763Z,968.16
2019-01-09T05:39:18.682Z,968.21
2019-01-09T05:40:18.595Z,968.27
2019-01-09T05:41:18.513Z,968.29
2019-01-09T05:42:18.432Z,968.28
2019-01-09T05:43:18.350Z,968.34
2019-01-09T05:44:18.264Z,968.36
2019-01-09T05:45:18.180Z,968.34
2019-01-09T05:46:18.096Z,968.33
2019-01-09T05:47:18.014Z,968.31
2019-01-09T05:48:17.934Z,968.25
2019-01-09T05:49:17.851Z,968.23
2019-01-09T05:50:17.760Z,968.27
2019-01-09T05:51:17.683Z,968.24
2019-01-09T05:52:17.598Z,968.24
2019-01-09T05:53:17.512Z,968.23
2019-01-09T05:54:17.434Z,968.20
2019-01-09T05:55:17.347Z,968.28
2019-01-09T05:56:17.266Z,968.19
2019-01-09T05:57:17.178Z,968.26
2019-01-09T05:58:17.095Z,968.21
2019-01-09T05:59:17.014Z,968.29
2019-01-09T06:00:16.927Z,968.29
2019-01-09T06:01:16.846Z,968.27
2019-01-09T06:02:16.764Z,968.26
2019-01-09T06:03:16.676Z,968.31
2019-01-09T06:04:16.615Z,968.27
2019-01-09T06:05:16.511Z,968.30
2019-01-09T06:06:16.427Z,968.33
2019-01-09T06:07:18.659Z,968.34
2019-01-09T06:08:16.262Z,968.31
2019-01-09T06:09:16.178Z,968.34
2019-01-09T06:10:16.096Z,968.38
2019-01-09T06:11:16.012Z,968.32
2019-01-09T06:12:15.930Z,968.32
2019-01-09T06:13:15.843Z,968.36
2019-01-09T06:14:15.759Z,968.42
2019-01-09T06:15:15.677Z,968.42
2019-01-09T06:16:15.594Z,968.39
2019-01-09T06:17:15.506Z,968.42
2019-01-09T06:18:15.426Z,968.46
2019-01-09T06:19:15.338Z,968.45
2019-01-09T06:20:15.259Z,968.45
2019-01-09T06:21:15.175Z,968.49
2019-01-09T06:22:15.093Z,968.50
2019-01-09T06:23:15.005Z,968.49
2019-01-09T06:24:14.926Z,968.49
2019-01-09T06:25:14.846Z,968.55
2019-01-09T06:26:14.758Z,968.50
2019-01-09T06:27:14.676Z,968.47
2019-01-09T06:28:14.593Z,968.48
2019-01-09T06:29:14.506Z,968.51
2019-01-09T06:30:14.423Z,968.47
2019-01-09T06:31:14.341Z,968.47
2019-01-09T06:32:14.261Z,968.51
2019-01-09T06:33:14.174Z,968.49
2019-01-09T06:34:14.090Z,968.47
2019-01-09T06:35:14.006Z,968.54
2019-01-09T06:36:13.926Z,968.57
2019-01-09T06:37:13.834Z,968.54
2019-01-09T06:38:13.754Z,968.51
2019-01-09T06:39:13.672Z,968.57
2019-01-09T06:40:13.589Z,968.58
2019-01-09T06:41:13.501Z,968.61
2019-01-09T06:42:13.420Z,968.61
2019-01-09T06:43:13.338Z,968.64
2019-01-09T06:44:13.257Z,968.59
2019-01-09T06:45:13.172Z,968.62
2019-01-09T06:46:13.088Z,968.58
2019-01-09T06:47:13.000Z,968.58
2019-01-09T06:48:12.919Z,968.63
2019-01-09T06:49:12.836Z,968.61
2019-01-09T06:50:12.755Z,968.65
2019-01-09T06:51:12.671Z,968.65
2019-01-09T06:52:12.586Z,968.59
2019-01-09T06:53:12.537Z,968.62
2019-01-09T06:54:12.439Z,968.64
2019-01-09T06:55:12.336Z,968.71
2019-01-09T06:56:12.256Z,968.73
2019-01-09T06:57:12.166Z,968.69
2019-01-09T06:58:12.083Z,968.62
2019-01-09T06:59:12.004Z,968.64
2019-01-09T07:00:11.917Z,968.63
2019-01-09T07:01:11.836Z,968.68
2019-01-09T07:02:11.749Z,968.65
2019-01-09T07:03:11.669Z,968.65
2019-01-09T07:04:11.582Z,968.61
2019-01-09T07:05:11.508Z,968.65
2019-01-09T07:06:11.415Z,968.66
2019-01-09T07:07:11.332Z,968.71
2019-01-09T07:08:11.245Z,968.67
2019-01-09T07:09:11.168Z,968.66
2019-01-09T07:10:11.080Z,968.68
2019-01-09T07:11:11.020Z,968.68
2019-01-09T07:12:10.910Z,968.70
2019-01-09T07:13:10.829Z,968.72
2019-01-09T07:14:10.747Z,968.71
2019-01-09T07:15:11.778Z,968.70
2019-01-09T07:16:10.581Z,968.70
2019-01-09T07:17:10.496Z,968.73
2019-01-09T07:18:10.410Z,968.72
2019-01-09T07:19:10.326Z,968.73
2019-01-09T07:20:10.243Z,968.73
2019-01-09T07:21:10.161Z,968.77
2019-01-09T07:22:10.078Z,968.77
2019-01-09T07:23:09.994Z,968.82
2019-01-09T07:24:09.909Z,968.78
2019-01-09T07:25:09.824Z,968.75
2019-01-09T07:26:09.740Z,968.81
2019-01-09T07:27:09.658Z,968.83
2019-01-09T07:28:09.571Z,968.78
2019-01-09T07:29:09.491Z,968.76
2019-01-09T07:30:09.409Z,968.79
2019-01-09T07:31:09.322Z,968.76
2019-01-09T07:32:09.239Z,968.82
2019-01-09T07:33:09.152Z,968.81
2019-01-09T07:34:09.072Z,968.82
2019-01-09T07:35:08.987Z,968.84
2019-01-09T07:36:08.904Z,968.83
2019-01-09T07:37:08.820Z,968.82
2019-01-09T07:38:08.732Z,968.87
2019-01-09T07:39:08.648Z,968.91
2019-01-09T07:40:08.569Z,968.89
2019-01-09T07:41:08.482Z,968.86
2019-01-09T07:42:08.402Z,968.86
2019-01-09T07:43:08.318Z,968.88
2019-01-09T07:44:08.237Z,968.91
2019-01-09T07:45:08.149Z,968.89
2019-01-09T07:46:08.066Z,968.93
2019-01-09T07:47:07.981Z,968.93
2019-01-09T07:48:07.896Z,968.89
2019-01-09T07:49:07.817Z,968.96
2019-01-09T07:50:07.728Z,969.00
2019-01-09T07:51:07.647Z,968.98
2019-01-09T07:52:07.567Z,968.98
2019-01-09T07:53:07.481Z,968.98
2019-01-09T07:54:07.399Z,968.98
2019-01-09T07:55:07.319Z,968.96
2019-01-09T07:56:07.226Z,968.96
2019-01-09T07:57:07.143Z,969.03
2019-01-09T07:58:07.057Z,969.02
2019-01-09T07:59:06.986Z,969.04
2019-01-09T08:00:06.897Z,969.03
2019-01-09T08:01:06.813Z,969.06
2019-01-09T08:02:06.736Z,969.08
2019-01-09T08:03:06.639Z,969.06
2019-01-09T08:04:06.572Z,969.09
2019-01-09T08:05:06.470Z,969.11
2019-01-09T08:06:06.390Z,969.18
2019-01-09T08:07:06.310Z,969.14
2019-01-09T08:08:06.245Z,969.14
2019-01-09T08:09:06.135Z,969.11
2019-01-09T08:10:06.056Z,969.21
2019-01-09T08:11:05.977Z,969.12
2019-01-09T08:12:05.892Z,969.20
2019-01-09T08:13:05.808Z,969.14
2019-01-09T08:14:05.728Z,969.18
2019-01-09T08:15:05.680Z,969.16
2019-01-09T08:16:05.564Z,969.16
2019-01-09T08:17:05.463Z,969.24
2019-01-09T08:18:05.378Z,969.23
2019-01-09T08:19:05.295Z,969.22
2019-01-09T08:20:05.213Z,969.23
2019-01-09T08:21:05.811Z,969.25
2019-01-09T08:22:05.049Z,969.31
2019-01-09T08:23:04.963Z,969.29
2019-01-09T08:24:04.884Z,969.30
2019-01-09T08:25:04.792Z,969.32
2019-01-09T08:26:04.710Z,969.31
2019-01-09T08:27:04.632Z,969.30
2019-01-09T08:28:04.554Z,969.35
2019-01-09T08:29:04.467Z,969.35
2019-01-09T08:30:04.381Z,969.34
2019-01-09T08:31:04.294Z,969.36
2019-01-09T08:32:04.212Z,969.39
2019-01-09T08:33:04.121Z,969.39
2019-01-09T08:34:04.041Z,969.41
2019-01-09T08:35:03.962Z,969.45
2019-01-09T08:36:03.875Z,969.39
2019-01-09T08:37:03.786Z,969.41
2019-01-09T08:38:03.706Z,969.41
2019-01-09T08:39:03.622Z,969.49
2019-01-09T08:40:03.527Z,969.46
2019-01-09T08:41:03.453Z,969.44
2019-01-09T08:42:03.367Z,969.51
2019-01-09T08:43:03.281Z,969.52
2019-01-09T08:44:03.197Z,969.54
2019-01-09T08:45:03.111Z,969.55
2019-01-09T08:46:03.035Z,969.52
2019-01-09T08:47:02.952Z,969.56
2019-01-09T08:48:02.871Z,969.58
2019-01-09T08:49:02.777Z,969.57
2019-01-09T08:50:02.702Z,969.55
2019-01-09T08:51:02.624Z,969.62
2019-01-09T08:52:02.527Z,969.65
2019-01-09T08:53:02.441Z,969.61
2019-01-09T08:54:02.358Z,969.63
2019-01-09T08:55:02.274Z,969.65
2019-01-09T08:56:02.200Z,969.61
2019-01-09T08:57:02.111Z,969.60
2019-01-09T08:58:02.034Z,969.65
2019-01-09T08:59:01.945Z,969.62
2019-01-09T09:00:01.869Z,969.64
2019-01-09T09:01:01.772Z,969.65
2019-01-09T09:02:01.696Z,969.64
2019-01-09T09:03:01.602Z,969.65
2019-01-09T09:04:01.518Z,969.67
2019-01-09T09:05:01.439Z,969.66
2019-01-09T09:06:01.352Z,969.68
2019-01-09T09:07:01.270Z,969.69
2019-01-09T09:08:01.182Z,969.70
2019-01-09T09:09:01.097Z,969.68
2019-01-09T09:10:01.018Z,969.70
2019-01-09T09:11:00.932Z,969.70
2019-01-09T09:12:00.847Z,969.69
2019-01-09T09:13:00.766Z,969.68
2019-01-09T09:14:00.684Z,969.69
2019-01-09T09:15:00.594Z,969.67
2019-01-09T09:16:00.515Z,969.73
2019-01-09T09:17:00.426Z,969.73
2019-01-09T09:18:00.341Z,969.75
2019-01-09T09:19:00.258Z,969.72
2019-01-09T09:20:00.289Z,969.70
2019-01-09T09:21:00.088Z,969.79
2019-01-09T09:22:00.007Z,969.81
2019-01-09T09:22:59.918Z,969.78
2019-01-09T09:23:59.839Z,969.81
2019-01-09T09:24:59.761Z,969.84
2019-01-09T09:28:08.236Z,969.89
2019-01-09T09:29:06.236Z,969.89
2019-01-09T09:30:08.493Z,969.93
2019-01-09T09:31:06.038Z,969.96
2019-01-09T09:32:05.801Z,969.96
2019-01-09T09:33:06.414Z,969.91
2019-01-09T09:34:07.935Z,969.95
2019-01-09T09:35:05.505Z,969.92
2019-01-09T09:36:05.299Z,969.99
2019-01-09T09:37:05.241Z,969.98
2019-01-09T09:38:05.140Z,970.01
2019-01-09T09:39:05.033Z,970.04
2019-01-09T09:40:04.989Z,970.05
2019-01-09T09:41:04.896Z,970.07
2019-01-09T09:42:04.845Z,970.03
2019-01-09T09:43:04.713Z,970.09
2019-01-09T09:44:04.619Z,970.07
2019-01-09T09:45:04.612Z,970.10
2019-01-09T09:46:04.478Z,970.13
2019-01-09T09:47:04.393Z,970.10
2019-01-09T09:48:04.339Z,970.08
2019-01-09T09:49:04.234Z,970.07
2019-01-09T09:50:04.163Z,970.08
2019-01-09T09:51:04.155Z,970.02
2019-01-09T09:52:03.960Z,970.09
2019-01-09T09:53:03.859Z,970.11
2019-01-09T09:54:03.784Z,970.12
2019-01-09T09:55:03.739Z,970.06
2019-01-09T09:56:03.611Z,970.06
2019-01-09T09:57:03.543Z,970.05
2019-01-09T09:58:05.807Z,970.01
2019-01-09T09:59:03.375Z,970.04
2019-01-09T10:00:03.290Z,970.02
2019-01-09T10:01:03.197Z,970.06
2019-01-09T10:02:03.118Z,970.06
2019-01-09T10:03:03.145Z,970.06
2019-01-09T10:04:03.017Z,970.09
2019-01-09T10:05:02.909Z,970.03
2019-01-09T10:06:02.809Z,970.03
2019-01-09T10:07:02.761Z,970.10
2019-01-09T10:08:02.634Z,970.05
2019-01-09T10:09:02.574Z,970.05
2019-01-09T10:10:02.438Z,970.04
2019-01-09T10:11:02.358Z,970.09
2019-01-09T10:12:02.396Z,970.06
2019-01-09T10:13:02.238Z,970.11
2019-01-09T10:14:02.124Z,970.09
2019-01-09T10:15:02.060Z,970.10
2019-01-09T10:16:01.936Z,970.11
2019-01-09T10:17:01.854Z,970.10
2019-01-09T10:18:01.773Z,970.10
2019-01-09T10:19:01.736Z,970.05
2019-01-09T10:20:01.645Z,970.06
2019-01-09T10:21:01.570Z,970.06
2019-01-09T10:22:01.550Z,970.07
2019-01-09T10:23:01.399Z,970.08
2019-01-09T10:24:01.331Z,970.09
2019-01-09T10:25:01.193Z,970.12
2019-01-09T10:26:01.115Z,970.06
2019-01-09T10:27:01.021Z,970.07
2019-01-09T10:28:00.934Z,970.07
2019-01-09T10:29:00.944Z,970.04
2019-01-09T10:30:00.781Z,970.06
2019-01-09T10:31:00.712Z,970.02
2019-01-09T10:32:00.600Z,970.06
2019-01-09T10:33:00.520Z,970.06
2019-01-09T10:34:00.429Z,970.06
2019-01-09T10:35:00.346Z,970.07
2019-01-09T10:36:00.319Z,970.08
2019-01-09T10:37:00.185Z,970.04
2019-01-09T10:38:00.101Z,970.10
2019-01-09T10:39:00.266Z,970.05
2019-01-09T10:39:59.939Z,970.07
2019-01-09T10:40:59.885Z,970.11
2019-01-09T10:41:59.813Z,970.11
2019-01-09T10:42:59.725Z,970.10
2019-01-09T10:44:00.031Z,970.11
2019-01-09T10:44:59.613Z,970.12
2019-01-09T10:45:59.480Z,970.09
2019-01-09T10:46:59.392Z,970.11
2019-01-09T10:47:59.335Z,970.14
2019-01-09T10:48:59.241Z,970.13
2019-01-09T10:49:59.171Z,970.14
2019-01-09T10:50:59.042Z,970.15
2019-01-09T10:51:59.028Z,970.15
2019-01-09T10:52:58.905Z,970.16
2019-01-09T10:54:00.608Z,970.09
2019-01-09T10:54:58.751Z,970.13
2019-01-09T10:55:58.598Z,970.12
2019-01-09T10:56:58.537Z,970.18
2019-01-09T10:57:58.550Z,970.15
2019-01-09T10:58:58.394Z,970.17
2019-01-09T10:59:58.318Z,970.23
2019-01-09T11:00:58.245Z,970.22
2019-01-09T11:01:58.122Z,970.24
2019-01-09T11:02:58.074Z,970.19
2019-01-09T11:03:57.918Z,970.23
2019-01-09T11:04:57.905Z,970.27
2019-01-09T11:05:57.988Z,970.22
2019-01-09T11:06:57.667Z,970.20
2019-01-09T11:07:57.758Z,970.23
2019-01-09T11:08:57.501Z,970.22
2019-01-09T11:09:57.508Z,970.20
2019-01-09T11:10:57.417Z,970.18
2019-01-09T11:11:57.312Z,970.18
2019-01-09T11:12:57.210Z,970.17
2019-01-09T11:13:57.170Z,970.17
2019-01-09T11:14:57.241Z,970.14
2019-01-09T11:15:57.036Z,970.15
2019-01-09T11:16:56.930Z,970.13
2019-01-09T11:17:56.791Z,970.16
2019-01-09T11:18:56.911Z,970.13
2019-01-09T11:19:56.657Z,970.10
2019-01-09T11:20:56.621Z,970.13
2019-01-09T11:21:56.485Z,970.09
2019-01-09T11:22:56.434Z,970.09
2019-01-09T11:23:56.450Z,970.08
2019-01-09T11:24:56.270Z,970.10
2019-01-09T11:25:56.140Z,970.08
2019-01-09T11:26:56.004Z,970.08
2019-01-09T11:27:55.959Z,970.03
2019-01-09T11:28:55.854Z,970.07
2019-01-09T11:29:55.867Z,970.05
2019-01-09T11:30:55.823Z,970.00
2019-01-09T11:31:55.625Z,970.02
2019-01-09T11:32:55.635Z,970.04
2019-01-09T11:33:55.458Z,970.04
2019-01-09T11:34:55.445Z,969.99
2019-01-09T11:35:55.354Z,970.03
2019-01-09T11:36:55.297Z,970.02
2019-01-09T11:37:55.138Z,969.98
2019-01-09T11:38:55.893Z,970.00
2019-01-09T11:39:54.998Z,969.99
2019-01-09T11:40:54.976Z,970.04
2019-01-09T11:41:54.861Z,970.02
2019-01-09T11:42:54.719Z,969.98
2019-01-09T11:43:54.676Z,970.01
2019-01-09T11:44:54.655Z,970.02
2019-01-09T11:45:54.522Z,970.00
2019-01-09T11:46:54.493Z,970.01
2019-01-09T11:47:54.364Z,969.99
2019-01-09T11:48:54.233Z,970.00
2019-01-09T11:49:54.241Z,969.97
2019-01-09T11:50:54.022Z,969.98
2019-01-09T11:51:53.966Z,969.92
2019-01-09T11:52:53.909Z,969.94
2019-01-09T11:53:53.811Z,969.93
2019-01-09T11:54:53.693Z,969.91
2019-01-09T11:55:53.710Z,969.94
2019-01-09T11:56:53.598Z,969.92
2019-01-09T11:57:53.493Z,969.92
2019-01-09T11:58:53.499Z,969.94
2019-01-09T11:59:53.422Z,969.95
2019-01-09T12:00:53.233Z,969.90
2019-01-09T12:01:53.153Z,969.89
2019-01-09T12:02:53.204Z,969.94
2019-01-09T12:03:53.021Z,969.94
2019-01-09T12:04:52.941Z,969.95
2019-01-09T12:05:52.839Z,969.99
2019-01-09T12:06:52.710Z,969.98
2019-01-09T12:07:52.619Z,969.98
2019-01-09T12:08:52.634Z,969.94
2019-01-09T12:09:52.540Z,969.97
2019-01-09T12:10:52.573Z,969.96
2019-01-09T12:11:52.342Z,969.92
2019-01-09T12:12:52.193Z,969.93
2019-01-09T12:13:53.359Z,969.93
2019-01-09T12:14:52.122Z,969.91
2019-01-09T12:15:52.087Z,969.93
2019-01-09T12:16:52.068Z,969.97
2019-01-09T12:17:51.862Z,969.95
2019-01-09T12:18:51.698Z,969.92
2019-01-09T12:19:51.785Z,969.94
2019-01-09T12:20:51.667Z,969.95
2019-01-09T12:21:51.473Z,969.96
2019-01-09T12:22:51.382Z,969.98
2019-01-09T12:23:51.357Z,969.95
2019-01-09T12:24:51.203Z,969.96
2019-01-09T12:25:51.183Z,969.97
2019-01-09T12:26:51.070Z,970.01
2019-01-09T12:27:51.017Z,970.02
2019-01-09T12:28:53.625Z,970.00
2019-01-09T12:29:50.724Z,969.95